Terminal Aerodrome Forecast
Issued by NWS

Home | Current Version | Previous Version | Text Only | Print | Product List | Glossary On
Versions: 1 2 3 4 5 6 7 8 9 10 11 12 13 14 15 16 17 18 19 20 21 22 23
144
FTUS43 KAPX 221941 AAF
TAFAPN
TAF AMD
KAPN 221941Z 2220/2318 19010G18KT P6SM OVC035
     FM222200 25009KT P6SM VCTS BKN040CB OVC080
      TEMPO 2222/2302 2SM -SHRA BR OVC025
     FM230200 00000KT 4SM -SHRA BR VCTS OVC015CB
     FM230800 VRB03KT 5SM -SHRA BR OVC008
     FM231000 30004KT 5SM BR VCSH OVC003
     FM231200 29005KT 5SM BR OVC008
     FM231600 28007KT P6SM BKN250=

USA.gov is the U.S. government's official web portal to all federal, state and local government web resources and services.